Time;durP1;ratioP1;P1;durP2;ratioP2;P2;SDS_P1;SDS_P2;PMS_P1;PMS_P2;Temp;Humidity;BMP_temperature;BMP_pressure;BME280_temperature;BME280_humidity;BME280_pressure;Samples;Min_cycle;Max_cycle;Signal;HPM_P1;HPM_P2
2023/07/20 00:00:00;;;;;;;4.72;1.23;;;;;;;19.80;100.00;95627.03;1014651;29;20636;-74
2023/07/20 00:00:30;;;;;;;1.60;1.10;;;;;;;19.83;100.00;95626.38;1017811;28;20031;-75
2023/07/20 00:01:01;;;;;;;1.70;1.40;;;;;;;19.83;100.00;95631.72;1022370;28;20086;-75
2023/07/20 00:01:31;;;;;;;3.20;1.45;;;;;;;19.83;100.00;95626.38;1026246;28;20049;-74
2023/07/20 00:02:02;;;;;;;4.30;1.25;;;;;;;19.82;100.00;95630.16;1022211;28;20027;-73
2023/07/20 00:02:33;;;;;;;6.28;2.13;;;;;;;19.82;100.00;95626.69;1014505;29;20039;-73
2023/07/20 00:03:16;;;;;;;5.97;1.35;;;;;;;19.77;100.00;95617.81;1018808;28;20039;-76
2023/07/20 00:03:54;;;;;;;3.58;1.10;;;;;;;19.81;100.00;95623.25;1016146;29;20503;-75
2023/07/20 00:04:25;;;;;;;3.92;1.35;;;;;;;19.75;100.00;95617.38;1021100;29;20441;-76
2023/07/20 00:04:55;;;;;;;5.95;1.35;;;;;;;19.82;100.00;95634.69;1018597;29;20027;-75
2023/07/20 00:05:26;;;;;;;5.13;1.30;;;;;;;19.83;100.00;95626.38;1021171;28;20027;-73
2023/07/20 00:05:56;;;;;;;7.40;1.25;;;;;;;19.79;100.00;95622.81;1022512;29;20027;-74
2023/07/20 00:06:27;;;;;;;4.40;1.50;;;;;;;19.83;100.00;95620.28;1023725;28;20039;-74
2023/07/20 00:06:58;;;;;;;4.60;1.50;;;;;;;19.82;100.00;95624.84;1023837;28;20037;-75
2023/07/20 00:07:29;;;;;;;3.65;1.23;;;;;;;19.78;100.00;95621.25;1021172;29;20125;-74
2023/07/20 00:07:59;;;;;;;2.63;1.08;;;;;;;19.80;100.00;95627.03;1018558;29;20031;-74
2023/07/20 00:08:30;;;;;;;3.67;1.10;;;;;;;19.78;100.00;95623.91;1014516;29;20039;-75
2023/07/20 00:09:00;;;;;;;7.07;1.60;;;;;;;19.80;100.00;95621.72;1014516;29;20032;-75
2023/07/20 00:09:31;;;;;;;3.03;1.23;;;;;;;19.80;100.00;95619.03;1018343;28;20036;-75
2023/07/20 00:10:01;;;;;;;5.28;1.20;;;;;;;19.80;100.00;95627.03;1018601;29;20430;-75
2023/07/20 00:10:32;;;;;;;5.22;1.58;;;;;;;19.78;100.00;95626.56;1017680;29;20118;-74
2023/07/20 00:11:02;;;;;;;6.90;1.40;;;;;;;19.78;100.00;95622.03;1010392;29;20021;-73
2023/07/20 00:11:35;;;;;;;2.13;1.20;;;;;;;19.75;100.00;95621.88;1018056;28;20024;-73
2023/07/20 00:12:06;;;;;;;1.85;1.13;;;;;;;19.66;100.00;95613.19;1014358;29;20471;-76
2023/07/20 00:12:37;;;;;;;2.22;0.88;;;;;;;19.70;100.00;95622.88;1016672;29;20119;-75
2023/07/20 00:13:08;;;;;;;7.95;1.70;;;;;;;19.67;100.00;95618.19;1014529;29;20565;-73
2023/07/20 00:13:38;;;;;;;7.25;1.77;;;;;;;19.63;100.00;95611.16;1010539;29;20048;-75
2023/07/20 00:14:09;;;;;;;4.40;2.40;;;;;;;19.69;100.00;95625.88;1014364;29;20024;-74
2023/07/20 00:14:39;;;;;;;3.00;1.40;;;;;;;19.62;100.00;95620.25;1018560;29;20050;-74
2023/07/20 00:15:10;;;;;;;1.50;0.93;;;;;;;19.67;100.00;95628.84;1018450;29;20036;-74
2023/07/20 00:15:40;;;;;;;5.63;2.17;;;;;;;19.67;100.00;95628.06;1018486;28;20027;-74
2023/07/20 00:16:10;;;;;;;6.10;1.30;;;;;;;19.65;100.00;95619.59;1018438;29;20036;-75
2023/07/20 00:16:41;;;;;;;8.25;1.30;;;;;;;19.58;100.00;95614.00;1014638;29;20520;-76
2023/07/20 00:17:11;;;;;;;8.70;1.45;;;;;;;19.64;100.00;95624.16;1014460;29;20028;-74
2023/07/20 00:17:42;;;;;;;4.30;1.20;;;;;;;19.65;100.00;95625.72;1014433;29;20020;-75
2023/07/20 00:18:13;;;;;;;3.33;1.17;;;;;;;19.66;100.00;95631.84;1014552;29;20027;-74
2023/07/20 00:18:43;;;;;;;3.40;1.27;;;;;;;19.58;100.00;95614.75;1014734;29;20115;-75
2023/07/20 00:19:14;;;;;;;3.10;2.45;;;;;;;19.62;100.00;95626.34;1020062;28;20028;-75
2023/07/20 00:19:45;;;;;;;3.47;1.30;;;;;;;19.62;100.00;95625.56;1026304;28;20024;-78
2023/07/20 00:20:15;;;;;;;3.38;1.00;;;;;;;19.55;100.00;95610.09;1022425;29;20023;-75
2023/07/20 00:20:45;;;;;;;7.22;1.45;;;;;;;19.60;100.00;95619.78;1021735;28;20019;-74
2023/07/20 00:21:16;;;;;;;4.85;1.20;;;;;;;19.60;100.00;95625.09;1030494;28;20726;-75
2023/07/20 00:21:46;;;;;;;7.85;1.30;;;;;;;19.60;100.00;95623.22;1022335;29;20045;-75
2023/07/20 00:22:17;;;;;;;3.58;1.05;;;;;;;19.57;100.00;95625.75;1026365;28;20019;-73
2023/07/20 00:22:47;;;;;;;3.08;1.33;;;;;;;19.59;100.00;95620.88;1018336;29;20389;-75
2023/07/20 00:23:22;;;;;;;6.50;1.40;;;;;;;19.59;100.00;95626.22;1022426;29;20035;-74
2023/07/20 00:23:52;;;;;;;2.65;1.25;;;;;;;19.60;100.00;95627.75;1021772;29;20099;-74
2023/07/20 00:24:23;;;;;;;2.95;1.30;;;;;;;19.51;100.00;95617.94;1018918;29;20031;-76
2023/07/20 00:24:53;;;;;;;5.78;1.10;;;;;;;19.59;100.00;95631.53;1026412;28;20023;-73
2023/07/20 00:25:24;;;;;;;5.38;1.90;;;;;;;19.60;100.00;95633.09;1026347;28;20567;-76
2023/07/20 00:25:55;;;;;;;1.70;0.88;;;;;;;19.54;100.00;95624.50;1022368;29;20027;-75
2023/07/20 00:26:25;;;;;;;5.20;1.17;;;;;;;19.58;100.00;95624.63;1010807;29;20028;-75
2023/07/20 00:26:55;;;;;;;7.65;1.52;;;;;;;19.57;100.00;95628.41;1018629;29;20034;-75
2023/07/20 00:27:26;;;;;;;6.10;1.17;;;;;;;19.57;100.00;95628.41;1022339;29;20497;-74
2023/07/20 00:27:57;;;;;;;3.25;1.52;;;;;;;19.56;100.00;95622.31;1014576;29;20016;-75
2023/07/20 00:28:27;;;;;;;1.63;1.05;;;;;;;19.50;100.00;95624.38;1022158;29;20378;-75
2023/07/20 00:28:58;;;;;;;6.47;1.30;;;;;;;19.45;100.00;95607.78;1014593;29;20050;-74
2023/07/20 00:29:28;;;;;;;3.22;1.25;;;;;;;19.52;100.00;95619.50;1019935;28;20024;-75
2023/07/20 00:29:59;;;;;;;5.03;1.30;;;;;;;19.58;100.00;95629.97;1026391;28;20042;-75
2023/07/20 00:30:29;;;;;;;2.95;1.23;;;;;;;19.48;100.00;95613.28;1021691;28;20071;-74
2023/07/20 00:31:00;;;;;;;4.45;1.65;;;;;;;19.54;100.00;95625.28;1018232;29;20020;-76
2023/07/20 00:31:30;;;;;;;4.15;1.45;;;;;;;19.55;100.00;95626.84;1010455;29;20287;-76
2023/07/20 00:32:01;;;;;;;4.05;1.20;;;;;;;19.52;100.00;95626.72;1010702;29;20036;-75
2023/07/20 00:32:31;;;;;;;2.25;1.38;;;;;;;19.49;100.00;95630.03;1014212;29;20047;-75
2023/07/20 00:33:02;;;;;;;5.47;1.17;;;;;;;19.45;100.00;95621.91;1017393;29;20516;-76
2023/07/20 00:33:32;;;;;;;3.72;1.30;;;;;;;19.48;100.00;95631.91;1018166;29;20075;-75
2023/07/20 00:34:03;;;;;;;3.08;1.05;;;;;;;19.32;100.00;95609.59;1022273;29;20943;-74
2023/07/20 00:34:34;;;;;;;2.03;1.23;;;;;;;19.47;100.00;95629.56;1022100;29;20106;-75
2023/07/20 00:35:04;;;;;;;4.95;1.42;;;;;;;19.45;100.00;95629.88;1018402;29;20513;-73
2023/07/20 00:35:35;;;;;;;4.40;1.50;;;;;;;19.45;100.00;95631.75;1018541;29;20051;-73
2023/07/20 00:36:05;;;;;;;1.75;1.00;;;;;;;19.44;100.00;95624.88;1022426;28;20162;-75
2023/07/20 00:36:36;;;;;;;2.45;1.17;;;;;;;19.41;100.00;95620.97;1030348;28;20045;-74
2023/07/20 00:37:07;;;;;;;2.28;1.15;;;;;;;19.44;100.00;95625.66;1026327;28;20038;-75
2023/07/20 00:37:38;;;;;;;3.85;1.27;;;;;;;19.42;100.00;95622.53;1026336;28;20030;-75
2023/07/20 00:38:09;;;;;;;4.45;1.27;;;;;;;19.46;100.00;95633.31;1018266;29;20514;-75
2023/07/20 00:38:40;;;;;;;8.55;1.50;;;;;;;19.46;100.00;95628.78;1018731;28;20058;-75
2023/07/20 00:39:11;;;;;;;2.72;1.10;;;;;;;19.44;100.00;95628.31;1022324;29;20707;-74
2023/07/20 00:39:41;;;;;;;4.45;1.10;;;;;;;19.44;100.00;95623.00;1018486;29;20035;-74
2023/07/20 00:40:12;;;;;;;6.53;1.30;;;;;;;19.43;100.00;95623.31;1022506;28;20023;-75
2023/07/20 00:40:42;;;;;;;4.15;1.50;;;;;;;19.38;100.00;95612.84;1021505;28;20178;-74
2023/07/20 00:41:13;;;;;;;1.65;0.95;;;;;;;19.42;100.00;95625.22;1022232;28;20031;-74
2023/07/20 00:41:43;;;;;;;2.15;1.20;;;;;;;19.37;100.00;95614.72;1022157;29;20039;-77
2023/07/20 00:42:14;;;;;;;4.95;1.13;;;;;;;19.44;100.00;95630.19;1018512;29;20122;-74
2023/07/20 00:42:44;;;;;;;7.00;1.38;;;;;;;19.42;100.00;95627.88;1022187;28;20027;-75
2023/07/20 00:43:15;;;;;;;2.92;1.23;;;;;;;19.33;100.00;95621.81;1022124;29;20050;-75
2023/07/20 00:43:45;;;;;;;3.67;1.02;;;;;;;19.35;100.00;95616.97;1018376;29;20552;-75
2023/07/20 00:44:16;;;;;;;2.58;1.60;;;;;;;19.41;100.00;95630.84;1022424;29;20035;-74
2023/07/20 00:44:46;;;;;;;3.05;0.95;;;;;;;19.33;100.00;95621.81;1022026;29;20090;-74
2023/07/20 00:45:17;;;;;;;5.32;1.20;;;;;;;19.40;100.00;95635.38;1023391;28;21582;-74
2023/07/20 00:45:48;;;;;;;3.58;1.48;;;;;;;19.37;100.00;95624.59;1018515;28;20023;-75
2023/07/20 00:46:18;;;;;;;1.88;1.20;;;;;;;19.36;100.00;95629.16;1018663;29;20571;-75
2023/07/20 00:46:49;;;;;;;1.10;0.90;;;;;;;19.29;100.00;95620.91;1018410;29;20060;-75
2023/07/20 00:47:19;;;;;;;4.35;1.20;;;;;;;19.26;100.00;95622.31;1022249;29;20043;-75
2023/07/20 00:47:50;;;;;;;2.97;1.13;;;;;;;19.32;100.00;95633.56;1018213;29;20039;-74
2023/07/20 00:48:20;;;;;;;2.40;1.00;;;;;;;19.34;100.00;95634.00;1017203;29;20110;-75
2023/07/20 00:48:50;;;;;;;2.05;1.10;;;;;;;19.30;100.00;95622.44;1014423;29;20039;-75
2023/07/20 00:49:21;;;;;;;3.03;1.45;;;;;;;19.30;100.00;95633.88;1012710;29;20028;-74
2023/07/20 00:49:52;;;;;;;1.70;1.00;;;;;;;19.31;100.00;95630.13;1015803;29;20020;-75
2023/07/20 00:50:23;;;;;;;4.45;1.13;;;;;;;19.24;100.00;95623.72;1017743;29;20043;-76
2023/07/20 00:50:53;;;;;;;2.33;1.23;;;;;;;19.25;100.00;95625.31;1013496;29;20060;-75
2023/07/20 00:51:24;;;;;;;4.45;1.35;;;;;;;19.22;100.00;95618.72;1018052;29;20024;-75
2023/07/20 00:51:54;;;;;;;4.05;1.40;;;;;;;19.26;100.00;95634.84;1022365;29;20087;-75
2023/07/20 00:52:25;;;;;;;1.67;1.23;;;;;;;19.27;100.00;95629.19;1022342;29;20473;-75
2023/07/20 00:52:55;;;;;;;4.57;1.17;;;;;;;19.26;100.00;95632.19;1015130;29;20056;-75
2023/07/20 00:53:26;;;;;;;2.60;1.30;;;;;;;19.27;100.00;95633.72;1019080;29;20119;-75
2023/07/20 00:53:57;;;;;;;3.45;1.35;;;;;;;19.20;100.00;95620.16;1022430;29;20023;-75
2023/07/20 00:54:28;;;;;;;2.70;1.25;;;;;;;19.17;100.00;95615.47;1022234;29;20019;-74
2023/07/20 00:54:58;;;;;;;5.57;1.40;;;;;;;19.23;100.00;95630.94;1019932;29;20086;-75
2023/07/20 00:55:28;;;;;;;3.33;1.35;;;;;;;19.17;100.00;95621.56;1018037;29;20618;-75
2023/07/20 00:55:59;;;;;;;5.80;1.33;;;;;;;19.20;100.00;95628.13;1014543;29;20359;-75
2023/07/20 00:56:29;;;;;;;5.13;1.60;;;;;;;19.21;100.00;95633.13;1018052;29;20067;-75
2023/07/20 00:57:00;;;;;;;5.82;1.00;;;;;;;19.16;100.00;95624.56;1018444;29;20030;-75
2023/07/20 00:57:31;;;;;;;5.82;1.35;;;;;;;19.17;100.00;95631.44;1010213;29;20056;-75
2023/07/20 00:58:01;;;;;;;5.07;1.30;;;;;;;19.10;100.00;95626.59;1014452;29;20028;-75
2023/07/20 00:58:32;;;;;;;8.27;1.38;;;;;;;19.15;100.00;95631.75;1021002;28;20034;-76
2023/07/20 00:59:03;;;;;;;3.92;1.20;;;;;;;19.08;100.00;95618.97;1022444;28;20034;-75
2023/07/20 00:59:36;;;;;;;5.35;1.33;;;;;;;19.14;100.00;95626.75;1014294;29;20020;-75
2023/07/20 01:00:07;;;;;;;10.07;1.33;;;;;;;19.16;100.00;95635.19;1018096;29;20027;-75
2023/07/20 01:00:38;;;;;;;1.85;1.05;;;;;;;18.94;100.00;95604.28;1017772;29;20533;-75
2023/07/20 01:01:08;;;;;;;4.15;1.45;;;;;;;19.13;100.00;95635.81;1018392;29;20079;-76
2023/07/20 01:01:39;;;;;;;4.35;1.35;;;;;;;19.04;100.00;95626.00;1018298;28;20020;-74
2023/07/20 01:02:09;;;;;;;4.68;1.55;;;;;;;19.11;100.00;95635.34;1018629;28;20505;-74
2023/07/20 01:02:40;;;;;;;3.05;1.27;;;;;;;19.08;100.00;95631.47;1022242;29;20028;-74
2023/07/20 01:03:10;;;;;;;2.03;1.00;;;;;;;19.01;100.00;95624.00;1018277;29;20083;-75
2023/07/20 01:03:40;;;;;;;4.35;1.08;;;;;;;19.10;100.00;95645.22;1014947;29;20028;-76
2023/07/20 01:04:11;;;;;;;9.93;1.58;;;;;;;19.05;100.00;95637.44;1014452;29;20035;-75
2023/07/20 01:04:41;;;;;;;8.18;1.27;;;;;;;19.06;100.00;95642.41;1014539;29;20128;-74
2023/07/20 01:05:12;;;;;;;2.03;1.30;;;;;;;19.05;100.00;95646.19;1022154;28;20050;-75
2023/07/20 01:05:59;;;;;;;3.42;1.10;;;;;;;19.00;100.00;95624.28;1022294;29;20142;-72
2023/07/20 01:06:30;;;;;;;2.03;1.05;;;;;;;19.05;100.00;95638.22;1014417;29;20055;-74
2023/07/20 01:07:03;;;;;;;2.92;1.13;;;;;;;19.08;100.00;95634.91;1021478;28;20040;-76
2023/07/20 01:07:39;;;;;;;3.90;1.17;;;;;;;18.99;100.00;95630.72;1026394;28;20110;-75
2023/07/20 01:08:27;;;;;;;2.30;1.30;;;;;;;19.03;100.00;95636.97;1020683;28;20019;-75
2023/07/20 01:09:00;;;;;;;6.10;1.27;;;;;;;19.01;100.00;95628.50;1018250;29;20015;-75
2023/07/20 01:09:34;;;;;;;2.10;1.15;;;;;;;19.00;100.00;95638.38;1018277;29;20438;-77
2023/07/20 01:10:11;;;;;;;3.10;1.40;;;;;;;19.01;100.00;95629.31;1018229;29;20027;-74
2023/07/20 01:10:50;;;;;;;2.40;1.15;;;;;;;18.98;100.00;95629.94;1012903;29;20032;-76
2023/07/20 01:11:26;;;;;;;6.03;1.38;;;;;;;18.96;100.00;95621.50;1013123;29;20028;-75
2023/07/20 01:12:03;;;;;;;9.02;1.13;;;;;;;19.02;100.00;95633.53;1014272;29;20020;-75
2023/07/20 01:12:43;;;;;;;3.25;0.90;;;;;;;18.99;100.00;95625.41;1015527;29;20023;-75
2023/07/20 01:13:14;;;;;;;4.10;0.98;;;;;;;18.99;100.00;95631.50;1018332;29;20031;-76
2023/07/20 01:13:44;;;;;;;3.53;1.10;;;;;;;18.99;100.00;95630.72;1020286;29;20085;-74
2023/07/20 01:14:15;;;;;;;9.18;1.05;;;;;;;18.96;100.00;95626.81;1019616;29;20509;-76
2023/07/20 01:14:45;;;;;;;3.28;1.33;;;;;;;18.99;100.00;95628.84;1018288;29;20026;-75
2023/07/20 01:15:16;;;;;;;3.05;1.10;;;;;;;18.99;100.00;95625.41;1010583;29;20028;-74
2023/07/20 01:15:51;;;;;;;3.42;1.10;;;;;;;19.00;100.00;95632.28;1011042;29;20063;-74
2023/07/20 01:16:21;;;;;;;2.22;1.33;;;;;;;18.98;100.00;95635.28;1015625;29;20024;-75
2023/07/20 01:16:52;;;;;;;2.55;1.30;;;;;;;18.96;100.00;95637.44;1019352;28;20079;-75
2023/07/20 01:17:24;;;;;;;3.45;1.27;;;;;;;18.97;100.00;95632.91;1018912;29;20043;-76
2023/07/20 01:17:54;;;;;;;3.25;1.27;;;;;;;18.97;100.00;95635.56;1018415;29;20042;-75
2023/07/20 01:18:24;;;;;;;1.98;0.90;;;;;;;18.96;100.00;95637.44;1010615;29;20028;-75
2023/07/20 01:18:55;;;;;;;3.00;1.40;;;;;;;18.97;100.00;95632.91;1015325;29;20119;-75
2023/07/20 01:19:25;;;;;;;3.60;1.20;;;;;;;18.96;100.00;95624.16;1018973;29;20031;-74
2023/07/20 01:19:56;;;;;;;4.07;1.30;;;;;;;18.96;100.00;95626.81;1019075;29;20460;-76
2023/07/20 01:20:27;;;;;;;5.38;1.33;;;;;;;18.94;100.00;95623.69;1022335;29;20027;-74
2023/07/20 01:20:59;;;;;;;1.48;0.90;;;;;;;18.95;100.00;95625.25;1018841;29;20106;-75
2023/07/20 01:21:49;;;;;;;5.88;1.30;;;;;;;18.96;100.00;95626.81;1019238;29;20028;-76
2023/07/20 01:22:31;;;;;;;19.13;2.72;;;;;;;18.98;100.00;95629.16;1019054;29;20055;-74
2023/07/20 01:23:46;;;;;;;3.80;1.20;;;;;;;18.96;100.00;95631.34;1018979;29;20031;-74
2023/07/20 01:24:53;;;;;;;1.45;1.00;;;;;;;18.92;100.00;95628.56;1030336;28;20022;-74
2023/07/20 01:26:00;;;;;;;2.75;0.85;;;;;;;18.91;100.00;95626.19;1027042;28;20444;-74
2023/07/20 01:26:37;;;;;;;1.50;0.75;;;;;;;18.89;100.00;95626.53;1018841;29;20735;-76
2023/07/20 01:27:22;;;;;;;6.85;1.00;;;;;;;18.90;100.00;95629.97;1024573;28;20012;-75
2023/07/20 01:28:05;;;;;;;1.60;1.17;;;;;;;18.89;100.00;95625.75;1022743;28;20042;-74
2023/07/20 01:28:37;;;;;;;8.57;1.15;;;;;;;18.87;100.00;95631.38;1030781;28;20041;-75
2023/07/20 01:29:46;;;;;;;2.85;1.88;;;;;;;18.86;100.00;95621.84;1026839;28;20018;-73
2023/07/20 01:30:44;;;;;;;2.55;0.90;;;;;;;18.80;100.00;95623.13;1026860;28;20034;-75
2023/07/20 01:31:24;;;;;;;5.38;0.85;;;;;;;18.76;100.00;95607.03;1020723;29;20034;-76
2023/07/20 01:31:55;;;;;;;1.52;1.05;;;;;;;18.80;100.00;95615.13;1015876;29;20051;-75
2023/07/20 01:32:25;;;;;;;2.53;1.00;;;;;;;18.76;100.00;95609.69;1014895;29;20397;-75
2023/07/20 01:32:57;;;;;;;4.53;1.20;;;;;;;18.84;100.00;95624.81;1025073;28;20523;-74
2023/07/20 01:33:27;;;;;;;2.72;1.10;;;;;;;18.79;100.00;95616.25;1026815;28;20031;-75
2023/07/20 01:33:58;;;;;;;1.85;1.15;;;;;;;18.76;100.00;95611.56;1022944;29;20842;-73
2023/07/20 01:34:29;;;;;;;2.78;1.35;;;;;;;18.80;100.00;95620.44;1015725;29;20534;-75
2023/07/20 01:35:00;;;;;;;1.80;0.93;;;;;;;18.75;100.00;95617.97;1022816;29;20034;-76
2023/07/20 01:35:30;;;;;;;6.25;1.05;;;;;;;18.79;100.00;95624.22;1026763;28;20030;-75
2023/07/20 01:36:00;;;;;;;3.45;1.00;;;;;;;18.77;100.00;95618.44;1015088;29;20109;-74
2023/07/20 01:36:34;;;;;;;5.45;1.27;;;;;;;18.74;100.00;95616.41;1018765;29;20042;-75
2023/07/20 01:37:04;;;;;;;5.00;1.08;;;;;;;18.74;100.00;95617.19;1018708;29;20135;-74
2023/07/20 01:37:35;;;;;;;3.97;1.00;;;;;;;18.76;100.00;95614.22;1015057;29;20055;-74
2023/07/20 01:38:05;;;;;;;2.40;1.23;;;;;;;18.80;100.00;95629.19;1010969;29;20039;-73
2023/07/20 01:38:36;;;;;;;1.92;1.00;;;;;;;18.74;100.00;95614.50;1018947;29;20027;-74
2023/07/20 01:39:07;;;;;;;4.25;0.95;;;;;;;18.73;100.00;95620.16;1022587;28;20027;-72
2023/07/20 01:39:37;;;;;;;2.88;0.95;;;;;;;18.79;100.00;95629.53;1022707;29;20023;-73
2023/07/20 01:40:09;;;;;;;2.00;1.10;;;;;;;18.76;100.00;95627.50;1015043;29;20609;-75
2023/07/20 01:40:39;;;;;;;2.28;1.17;;;;;;;18.77;100.00;95623.75;1022214;29;20027;-74
2023/07/20 01:41:10;;;;;;;4.35;1.13;;;;;;;18.78;100.00;95626.09;1022712;29;20074;-74
2023/07/20 01:41:41;;;;;;;2.25;1.15;;;;;;;18.75;100.00;95617.97;1018806;29;20035;-76
2023/07/20 01:42:11;;;;;;;4.60;1.60;;;;;;;18.81;100.00;95622.81;1014479;29;20032;-75
2023/07/20 01:42:46;;;;;;;7.53;1.15;;;;;;;18.81;100.00;95619.34;1018834;29;20131;-76
2023/07/20 01:43:17;;;;;;;3.33;1.08;;;;;;;18.79;100.00;95618.91;1014044;29;20024;-75
2023/07/20 01:43:47;;;;;;;3.83;0.98;;;;;;;18.76;100.00;95624.84;1018755;29;20028;-73
2023/07/20 01:44:18;;;;;;;1.98;0.90;;;;;;;18.80;100.00;95628.44;1021392;29;20402;-74
2023/07/20 01:44:50;;;;;;;2.97;1.30;;;;;;;18.83;100.00;95623.25;1012721;29;20032;-74
2023/07/20 01:45:21;;;;;;;3.25;1.00;;;;;;;18.83;100.00;95627.78;1015205;29;20043;-74
2023/07/20 01:45:51;;;;;;;2.72;0.93;;;;;;;18.83;100.00;95628.56;1015636;29;20054;-75
2023/07/20 01:46:22;;;;;;;4.60;1.45;;;;;;;18.85;100.00;95630.94;1021816;28;20031;-73
2023/07/20 01:46:52;;;;;;;5.43;1.30;;;;;;;18.82;100.00;95627.03;1030694;28;20508;-75
2023/07/20 01:47:22;;;;;;;1.75;1.00;;;;;;;18.85;100.00;95636.25;1032942;28;20997;-73
2023/07/20 01:47:53;;;;;;;3.45;1.15;;;;;;;18.85;100.00;95630.94;1026862;28;20030;-73
2023/07/20 01:48:23;;;;;;;5.78;1.10;;;;;;;18.85;100.00;95628.28;1023239;28;20043;-73
2023/07/20 01:48:54;;;;;;;1.60;0.85;;;;;;;18.82;100.00;95628.91;1022907;29;20039;-76
2023/07/20 01:49:24;;;;;;;1.48;1.08;;;;;;;18.78;100.00;95620.78;1014902;29;20095;-75
2023/07/20 01:49:55;;;;;;;2.78;1.35;;;;;;;18.83;100.00;95638.44;1020724;28;20095;-73
2023/07/20 01:50:25;;;;;;;5.13;1.13;;;;;;;18.82;100.00;95632.34;1018272;29;20031;-76
2023/07/20 01:50:56;;;;;;;6.78;0.98;;;;;;;18.82;100.00;95631.56;1018911;29;20115;-75
2023/07/20 01:51:26;;;;;;;2.95;1.30;;;;;;;18.83;100.00;95633.13;1022159;29;20046;-75
2023/07/20 01:51:56;;;;;;;2.53;1.08;;;;;;;18.82;100.00;95634.22;1018966;29;20528;-75
2023/07/20 01:52:27;;;;;;;2.63;1.15;;;;;;;18.83;100.00;95633.13;1019034;29;20031;-76
2023/07/20 01:52:57;;;;;;;2.03;0.85;;;;;;;18.83;100.00;95633.88;1018825;28;20031;-73
2023/07/20 01:53:28;;;;;;;1.05;0.82;;;;;;;18.83;100.00;95633.13;1017825;29;20032;-74
2023/07/20 01:53:59;;;;;;;3.53;1.35;;;;;;;18.81;100.00;95635.28;1022813;28;20043;-74
2023/07/20 01:54:30;;;;;;;2.80;0.90;;;;;;;18.83;100.00;95641.09;1015192;29;20025;-75
2023/07/20 01:55:00;;;;;;;2.45;0.93;;;;;;;18.75;100.00;95632.06;1014918;29;20056;-75
2023/07/20 01:55:31;;;;;;;6.03;1.35;;;;;;;18.75;100.00;95633.94;1016715;29;20105;-75
2023/07/20 01:56:01;;;;;;;2.90;1.23;;;;;;;18.78;100.00;95643.94;1018844;29;20071;-72
2023/07/20 01:56:32;;;;;;;3.58;0.98;;;;;;;18.82;100.00;95640.31;1022286;29;20023;-73
2023/07/20 01:57:02;;;;;;;1.88;0.90;;;;;;;18.80;100.00;95644.38;1022957;28;20079;-75
2023/07/20 01:57:33;;;;;;;2.85;1.17;;;;;;;18.79;100.00;95637.50;1018802;28;20028;-74
2023/07/20 01:58:03;;;;;;;8.90;2.45;;;;;;;18.80;100.00;95636.41;1014870;29;20649;-77
2023/07/20 01:58:34;;;;;;;3.08;0.95;;;;;;;18.77;100.00;95639.69;1018803;29;20023;-73
2023/07/20 01:59:04;;;;;;;2.97;0.80;;;;;;;18.76;100.00;95632.81;1022765;29;20039;-74
2023/07/20 01:59:35;;;;;;;1.63;0.82;;;;;;;18.76;100.00;95644.22;1022973;29;20059;-73
2023/07/20 02:00:06;;;;;;;3.13;1.10;;;;;;;18.78;100.00;95646.59;1018732;29;20032;-75
2023/07/20 02:00:37;;;;;;;1.83;1.00;;;;;;;18.69;100.00;95627.19;1014644;29;20034;-73
2023/07/20 02:01:08;;;;;;;5.25;1.60;;;;;;;18.75;100.00;95641.91;1018770;29;20051;-74
2023/07/20 02:01:38;;;;;;;1.92;0.90;;;;;;;18.64;100.00;95630.78;1019510;28;20016;-72
2023/07/20 02:02:09;;;;;;;2.67;1.23;;;;;;;18.71;100.00;95635.59;1022804;28;20024;-74
2023/07/20 02:02:39;;;;;;;4.55;1.23;;;;;;;18.76;100.00;95649.56;1023063;28;20056;-74
2023/07/20 02:03:11;;;;;;;4.57;1.23;;;;;;;18.75;100.00;95644.56;1022800;29;20452;-72
2023/07/20 02:03:42;;;;;;;5.07;1.65;;;;;;;18.77;100.00;95645.00;1023162;28;20497;-73
2023/07/20 02:04:13;;;;;;;2.47;0.98;;;;;;;18.74;100.00;95642.97;1023016;28;20038;-72
2023/07/20 02:04:43;;;;;;;1.92;1.15;;;;;;;18.64;100.00;95619.38;1023163;28;20515;-75
2023/07/20 02:05:14;;;;;;;3.58;1.52;;;;;;;18.70;100.00;95639.38;1018788;29;20031;-74
2023/07/20 02:05:44;;;;;;;2.33;0.95;;;;;;;18.61;100.00;95626.91;1018889;29;20047;-75
2023/07/20 02:06:15;;;;;;;1.80;1.25;;;;;;;18.69;100.00;95648.44;1022868;29;20020;-73
2023/07/20 02:06:45;;;;;;;3.25;1.00;;;;;;;18.68;100.00;95641.56;1014803;29;20072;-73
2023/07/20 02:07:16;;;;;;;3.75;1.38;;;;;;;18.68;100.00;95636.25;1018894;29;20067;-74
2023/07/20 02:07:46;;;;;;;2.42;0.98;;;;;;;18.64;100.00;95643.28;1022759;28;20035;-75
2023/07/20 02:08:18;;;;;;;10.77;1.10;;;;;;;18.57;100.00;95638.47;1018980;28;20785;-73
2023/07/20 02:08:48;;;;;;;1.33;1.00;;;;;;;18.61;100.00;95647.34;1022608;28;20015;-74
2023/07/20 02:09:19;;;;;;;2.75;1.45;;;;;;;18.58;100.00;95638.16;1014844;29;20418;-75
2023/07/20 02:09:50;;;;;;;2.35;1.08;;;;;;;18.61;100.00;95647.34;1014898;29;20028;-73
2023/07/20 02:10:20;;;;;;;10.40;1.20;;;;;;;18.60;100.00;95643.91;1022165;29;20114;-73
2023/07/20 02:10:51;;;;;;;3.38;1.00;;;;;;;18.57;100.00;95641.88;1016229;29;20054;-73
2023/07/20 02:11:25;;;;;;;2.08;1.00;;;;;;;18.56;100.00;95636.91;1022820;29;20023;-72
2023/07/20 02:11:55;;;;;;;1.98;1.00;;;;;;;18.59;100.00;95644.25;1027011;28;20031;-73
2023/07/20 02:12:26;;;;;;;3.92;1.10;;;;;;;18.51;100.00;95640.53;1029084;28;20520;-73
2023/07/20 02:12:56;;;;;;;4.28;1.00;;;;;;;18.58;100.00;95648.78;1026724;28;20031;-75
2023/07/20 02:13:27;;;;;;;3.65;1.05;;;;;;;18.56;100.00;95640.34;1022825;29;20016;-73
2023/07/20 02:13:57;;;;;;;2.05;0.98;;;;;;;18.54;100.00;95647.06;1018702;29;20103;-76
2023/07/20 02:14:28;;;;;;;1.83;1.02;;;;;;;18.51;100.00;95645.84;1018708;29;20043;-75
2023/07/20 02:14:58;;;;;;;2.75;1.23;;;;;;;18.51;100.00;95643.19;1015013;29;20039;-75
2023/07/20 02:15:28;;;;;;;3.10;0.90;;;;;;;18.50;100.00;95644.25;1018879;29;20031;-74
2023/07/20 02:15:59;;;;;;;3.28;1.08;;;;;;;18.46;100.00;95640.66;1018828;29;20561;-74
2023/07/20 02:16:29;;;;;;;2.30;1.00;;;;;;;18.52;100.00;95655.34;1018789;28;20032;-74
2023/07/20 02:17:01;;;;;;;5.20;1.50;;;;;;;18.51;100.00;95648.50;1026759;28;20077;-73
2023/07/20 02:17:31;;;;;;;1.85;1.15;;;;;;;18.42;100.00;95639.75;1025301;28;20081;-75
2023/07/20 02:18:03;;;;;;;1.50;1.08;;;;;;;18.50;100.00;95654.09;1022928;29;20478;-73
2023/07/20 02:18:33;;;;;;;2.75;0.95;;;;;;;18.49;100.00;95650.66;1023028;28;20070;-74
2023/07/20 02:19:06;;;;;;;4.70;1.30;;;;;;;18.48;100.00;95648.34;1022551;28;20078;-75
2023/07/20 02:19:37;;;;;;;3.30;1.10;;;;;;;18.49;100.00;95649.91;1022790;29;20015;-74
2023/07/20 02:20:09;;;;;;;4.32;1.08;;;;;;;18.43;100.00;95643.94;1014979;29;20351;-73
2023/07/20 02:20:41;;;;;;;5.05;1.17;;;;;;;18.46;100.00;95648.63;1014690;29;20127;-74
2023/07/20 02:21:11;;;;;;;3.58;1.30;;;;;;;18.43;100.00;95649.25;1017519;29;20484;-75
2023/07/20 02:21:41;;;;;;;5.18;1.10;;;;;;;18.38;100.00;95644.91;1023196;29;20030;-73
2023/07/20 02:22:12;;;;;;;2.13;1.15;;;;;;;18.44;100.00;95652.69;1022272;29;20052;-75
2023/07/20 02:22:42;;;;;;;5.25;1.13;;;;;;;18.43;100.00;95646.59;1022172;29;20799;-73
2023/07/20 02:23:13;;;;;;;3.97;1.15;;;;;;;18.40;100.00;95651.78;1023044;29;20020;-74
2023/07/20 02:23:43;;;;;;;3.63;1.10;;;;;;;18.38;100.00;95649.44;1020616;28;20235;-75
2023/07/20 02:24:14;;;;;;;2.35;1.08;;;;;;;18.38;100.00;95644.91;1029989;28;20018;-74
2023/07/20 02:24:44;;;;;;;3.30;1.15;;;;;;;18.38;100.00;95647.56;1022996;29;20571;-72
2023/07/20 02:25:15;;;;;;;5.22;1.20;;;;;;;18.35;100.00;95644.75;1022828;28;20027;-75
2023/07/20 02:25:45;;;;;;;2.38;1.15;;;;;;;18.34;100.00;95651.16;1022922;29;20027;-75
2023/07/20 02:26:16;;;;;;;5.05;1.40;;;;;;;18.23;100.00;95637.41;1019199;28;20034;-72
2023/07/20 02:26:46;;;;;;;5.97;1.35;;;;;;;18.23;100.00;95642.72;1015476;29;20079;-73
2023/07/20 02:27:17;;;;;;;5.32;1.00;;;;;;;18.24;100.00;95648.81;1015501;29;20024;-72
2023/07/20 02:27:47;;;;;;;2.20;1.10;;;;;;;18.29;100.00;95651.31;1015370;29;20024;-75
2023/07/20 02:28:18;;;;;;;1.35;1.00;;;;;;;18.14;100.00;95633.97;1019416;29;20369;-73